createdAt,value
2023-03-18T00:02:21.849Z,2.60
2023-03-18T00:04:49.528Z,2.50
2023-03-18T00:07:17.233Z,2.57
2023-03-18T00:09:45.044Z,2.30
2023-03-18T00:12:12.693Z,2.87
2023-03-18T00:14:41.904Z,2.50
2023-03-18T00:17:09.643Z,2.20
2023-03-18T00:19:38.130Z,2.37
2023-03-18T00:22:05.947Z,2.20
2023-03-18T00:24:33.536Z,2.30
2023-03-18T00:27:01.175Z,2.30
2023-03-18T00:29:28.891Z,2.20
2023-03-18T00:31:58.678Z,2.40
2023-03-18T00:34:27.006Z,2.20
2023-03-18T00:36:57.033Z,2.00
2023-03-18T00:39:26.419Z,2.20
2023-03-18T00:41:58.296Z,1.83
2023-03-18T00:44:26.313Z,2.10
2023-03-18T00:46:54.013Z,1.97
2023-03-18T00:49:23.044Z,2.27
2023-03-18T00:51:52.035Z,2.33
2023-03-18T00:54:20.830Z,2.23
2023-03-18T00:56:48.663Z,2.23
2023-03-18T00:59:16.381Z,2.17
2023-03-18T01:01:44.151Z,1.90
2023-03-18T01:04:11.842Z,1.90
2023-03-18T01:06:40.847Z,1.80
2023-03-18T01:09:11.723Z,2.27
2023-03-18T01:11:39.643Z,1.97
2023-03-18T01:14:07.356Z,1.87
2023-03-18T01:16:35.057Z,1.90
2023-03-18T01:19:04.259Z,2.13
2023-03-18T01:21:32.072Z,1.90
2023-03-18T01:24:01.501Z,2.27
2023-03-18T01:26:29.280Z,1.80
2023-03-18T01:28:57.015Z,2.13
2023-03-18T01:31:25.438Z,1.97
2023-03-18T01:33:53.264Z,2.03
2023-03-18T01:36:22.079Z,1.90
2023-03-18T01:38:49.669Z,2.33
2023-03-18T01:41:18.746Z,1.80
2023-03-18T01:43:46.350Z,2.03
2023-03-18T01:46:36.700Z,1.90
2023-03-18T01:49:08.558Z,1.80
2023-03-18T01:51:36.728Z,2.00
2023-03-18T01:54:07.650Z,2.00
2023-03-18T01:56:38.483Z,1.90
2023-03-18T01:59:08.306Z,1.90
2023-03-18T02:01:41.093Z,2.00
2023-03-18T02:04:11.144Z,2.20
2023-03-18T02:06:39.464Z,1.80
2023-03-18T02:09:08.535Z,2.00
2023-03-18T02:11:42.606Z,2.00
2023-03-18T02:14:13.511Z,1.93
2023-03-18T02:16:46.295Z,1.70
2023-03-18T02:19:23.632Z,1.77
2023-03-18T02:21:59.035Z,1.73
2023-03-18T02:24:37.985Z,1.67
2023-03-18T02:27:15.938Z,1.93
2023-03-18T02:29:45.077Z,1.50
2023-03-18T02:32:14.334Z,1.43
2023-03-18T02:34:44.217Z,1.80
2023-03-18T02:37:12.057Z,1.90
2023-03-18T02:39:40.130Z,2.10
2023-03-18T02:42:08.483Z,2.03
2023-03-18T02:44:42.493Z,1.90
2023-03-18T02:47:14.147Z,2.03
2023-03-18T02:49:42.778Z,1.60
2023-03-18T02:52:10.489Z,1.80
2023-03-18T02:54:38.091Z,1.43
2023-03-18T02:57:05.890Z,1.43
2023-03-18T02:59:33.755Z,1.60
2023-03-18T03:02:03.865Z,2.00
2023-03-18T03:04:31.933Z,1.60
2023-03-18T03:07:01.412Z,1.70
2023-03-18T03:09:29.010Z,1.60
2023-03-18T03:11:56.663Z,1.43
2023-03-18T03:14:24.406Z,1.73
2023-03-18T03:16:52.014Z,1.77
2023-03-18T03:19:20.979Z,1.43
2023-03-18T03:21:48.606Z,1.63
2023-03-18T03:24:16.388Z,1.50
2023-03-18T03:26:44.630Z,1.50
2023-03-18T03:29:12.896Z,1.60
2023-03-18T03:31:40.535Z,1.50
2023-03-18T03:34:08.241Z,1.83
2023-03-18T03:36:37.668Z,1.60
2023-03-18T03:39:06.144Z,1.60
2023-03-18T03:41:33.987Z,2.00
2023-03-18T03:44:01.586Z,1.80
2023-03-18T03:46:29.385Z,1.60
2023-03-18T03:48:57.074Z,1.60
2023-03-18T03:51:24.790Z,1.60
2023-03-18T03:53:54.060Z,1.60
2023-03-18T03:56:22.284Z,1.47
2023-03-18T03:58:50.057Z,1.37
2023-03-18T04:01:17.705Z,1.50
2023-03-18T04:03:45.348Z,1.60
2023-03-18T04:06:13.286Z,1.33
2023-03-18T04:08:41.526Z,1.63
2023-03-18T04:11:11.069Z,1.57
2023-03-18T04:13:38.941Z,1.50
2023-03-18T04:16:07.748Z,1.23
2023-03-18T04:18:35.381Z,1.53
2023-03-18T04:21:03.117Z,1.50
2023-03-18T04:23:33.052Z,1.60
2023-03-18T04:26:01.511Z,1.63
2023-03-18T04:28:30.449Z,1.40
2023-03-18T04:30:58.302Z,1.30
2023-03-18T04:33:26.241Z,1.60
2023-03-18T04:35:53.904Z,1.70
2023-03-18T04:38:21.603Z,1.23
2023-03-18T04:40:49.167Z,1.40
2023-03-18T04:43:16.904Z,1.43
2023-03-18T04:45:45.834Z,1.43
2023-03-18T04:48:13.441Z,1.63
2023-03-18T04:50:41.077Z,1.33
2023-03-18T04:53:08.991Z,1.50
2023-03-18T04:55:36.676Z,1.40
2023-03-18T04:58:04.608Z,1.50
2023-03-18T05:00:32.368Z,1.20
2023-03-18T05:03:01.583Z,1.40
2023-03-18T05:05:29.264Z,1.13
2023-03-18T05:07:56.868Z,1.43
2023-03-18T05:10:24.496Z,1.30
2023-03-18T05:12:52.089Z,1.40
2023-03-18T05:15:20.188Z,1.20
2023-03-18T05:17:47.988Z,1.40
2023-03-18T05:20:17.035Z,1.40
2023-03-18T05:22:44.651Z,1.20
2023-03-18T05:25:12.669Z,1.20
2023-03-18T05:27:40.801Z,1.33
2023-03-18T05:30:11.204Z,1.30
2023-03-18T05:32:39.112Z,1.40
2023-03-18T05:35:07.574Z,1.20
2023-03-18T05:37:36.791Z,1.47
2023-03-18T05:40:05.204Z,1.33
2023-03-18T05:42:35.175Z,1.37
2023-03-18T05:45:05.053Z,1.27
2023-03-18T05:47:33.051Z,1.33
2023-03-18T05:50:01.624Z,1.20
2023-03-18T05:52:29.298Z,1.20
2023-03-18T05:54:58.385Z,1.30
2023-03-18T05:57:26.367Z,1.10
2023-03-18T05:59:53.968Z,1.17
2023-03-18T06:02:21.576Z,1.30
2023-03-18T06:04:49.227Z,1.10
2023-03-18T06:07:16.894Z,1.53
2023-03-18T06:09:44.577Z,1.23
2023-03-18T06:12:13.663Z,1.37
2023-03-18T06:14:41.289Z,0.90
2023-03-18T06:17:09.518Z,1.20
2023-03-18T06:19:37.108Z,1.27
2023-03-18T06:22:04.808Z,1.17
2023-03-18T06:24:32.615Z,1.30
2023-03-18T06:27:00.212Z,1.37
2023-03-18T06:29:29.890Z,1.30
2023-03-18T06:31:57.493Z,1.33
2023-03-18T06:34:25.269Z,1.50
2023-03-18T06:36:53.273Z,1.30
2023-03-18T06:39:21.080Z,1.20
2023-03-18T06:41:49.062Z,1.27
2023-03-18T06:44:16.686Z,1.37
2023-03-18T06:46:45.973Z,2.00
2023-03-18T06:49:14.915Z,1.40
2023-03-18T06:51:43.531Z,1.53
2023-03-18T06:54:11.503Z,1.70
2023-03-18T06:56:41.600Z,1.80
2023-03-18T06:59:10.815Z,1.70
2023-03-18T07:01:38.598Z,1.60
2023-03-18T07:04:08.194Z,1.97
2023-03-18T07:06:36.259Z,1.60
2023-03-18T07:09:04.585Z,1.43
2023-03-18T07:11:32.211Z,1.60
2023-03-18T07:13:59.846Z,1.60
2023-03-18T07:16:27.865Z,1.90
2023-03-18T07:18:58.288Z,1.87
2023-03-18T07:21:27.802Z,1.60
2023-03-18T07:23:56.178Z,1.83
2023-03-18T07:26:24.255Z,1.90
2023-03-18T07:28:52.214Z,1.83
2023-03-18T07:31:20.124Z,1.90
2023-03-18T07:33:48.807Z,1.63
2023-03-18T07:36:16.628Z,1.90
2023-03-18T07:38:46.173Z,1.70
2023-03-18T07:41:13.980Z,1.67
2023-03-18T07:43:41.879Z,1.60
2023-03-18T07:46:09.503Z,1.57
2023-03-18T07:48:37.155Z,1.83
2023-03-18T07:51:05.063Z,2.00
2023-03-18T07:53:33.654Z,1.50
2023-03-18T07:56:03.358Z,1.40
2023-03-18T07:58:30.951Z,1.40
2023-03-18T08:00:59.779Z,1.73
2023-03-18T08:03:27.955Z,1.50
2023-03-18T08:05:56.020Z,1.63
2023-03-18T08:08:24.873Z,1.60
2023-03-18T08:10:52.744Z,2.00
2023-03-18T08:13:21.689Z,1.93
2023-03-18T08:15:49.321Z,1.57
2023-03-18T08:18:16.933Z,1.90
2023-03-18T08:20:44.559Z,1.67
2023-03-18T08:23:12.740Z,1.80
2023-03-18T08:25:40.384Z,1.60
2023-03-18T08:28:08.216Z,1.77
2023-03-18T08:30:40.297Z,1.67
2023-03-18T08:33:08.005Z,1.70
2023-03-18T08:35:36.156Z,1.97
2023-03-18T08:38:04.230Z,1.70
2023-03-18T08:40:34.747Z,1.70
2023-03-18T08:43:02.447Z,1.73
2023-03-18T08:45:30.726Z,2.03
2023-03-18T08:48:00.263Z,1.50
2023-03-18T08:50:29.679Z,1.70
2023-03-18T08:52:58.726Z,1.73
2023-03-18T08:55:31.380Z,1.77
2023-03-18T08:58:00.109Z,1.97
2023-03-18T09:00:28.541Z,1.70
2023-03-18T09:02:56.639Z,1.80
2023-03-18T09:05:25.814Z,1.57
2023-03-18T09:07:53.592Z,1.67
2023-03-18T09:10:21.464Z,1.83
2023-03-18T09:12:49.914Z,1.90
2023-03-18T09:15:20.198Z,2.00
2023-03-18T09:18:03.907Z,1.63
2023-03-18T09:20:37.671Z,1.33
2023-03-18T09:23:05.470Z,1.80
2023-03-18T09:25:34.304Z,1.90
2023-03-18T09:28:02.215Z,1.80
2023-03-18T09:30:30.213Z,1.73
2023-03-18T09:32:58.014Z,2.13
2023-03-18T09:35:26.367Z,1.87
2023-03-18T09:37:55.577Z,2.20
2023-03-18T09:40:27.739Z,1.73
2023-03-18T09:43:03.692Z,1.77
2023-03-18T09:45:36.354Z,1.60
2023-03-18T09:48:41.637Z,1.80
2023-03-18T09:51:23.053Z,1.80
2023-03-18T09:53:56.778Z,1.80
2023-03-18T09:56:27.378Z,1.43
2023-03-18T09:59:00.457Z,1.87
2023-03-18T10:01:29.501Z,1.80
2023-03-18T10:04:04.198Z,1.80
2023-03-18T10:06:32.692Z,1.80
2023-03-18T10:09:09.739Z,1.50
2023-03-18T10:11:42.631Z,1.57
2023-03-18T10:14:21.645Z,1.57
2023-03-18T10:17:04.774Z,1.90
2023-03-18T10:19:33.636Z,1.60
2023-03-18T10:22:17.039Z,1.70
2023-03-18T10:24:52.897Z,1.83
2023-03-18T10:27:27.746Z,1.93
2023-03-18T10:30:04.827Z,1.80
2023-03-18T10:32:49.469Z,1.47
2023-03-18T10:35:27.893Z,1.83
2023-03-18T10:38:03.171Z,1.87
2023-03-18T10:40:37.190Z,1.63
2023-03-18T10:43:05.665Z,1.60
2023-03-18T10:45:35.483Z,1.80
2023-03-18T10:48:08.982Z,1.70
2023-03-18T10:50:41.155Z,1.63
2023-03-18T10:53:18.716Z,1.57
2023-03-18T10:55:57.454Z,1.70
2023-03-18T10:58:25.245Z,1.60
2023-03-18T11:00:52.816Z,1.77
2023-03-18T11:03:24.894Z,1.50
2023-03-18T11:05:53.837Z,1.70
2023-03-18T11:08:34.743Z,1.87
2023-03-18T11:11:35.064Z,1.70
2023-03-18T11:14:04.103Z,1.50
2023-03-18T11:16:38.125Z,1.90
2023-03-18T11:19:25.619Z,1.60
2023-03-18T11:22:02.400Z,1.63
2023-03-18T11:24:38.761Z,1.47
2023-03-18T11:27:25.870Z,1.33
2023-03-18T11:29:57.765Z,1.57
2023-03-18T11:32:27.816Z,1.70
2023-03-18T11:34:58.278Z,1.70
2023-03-18T11:37:32.766Z,1.57
2023-03-18T11:40:26.456Z,1.30
2023-03-18T11:43:00.471Z,1.47
2023-03-18T11:45:50.152Z,1.33
2023-03-18T11:48:24.933Z,1.47
2023-03-18T11:51:03.432Z,1.40
2023-03-18T11:53:41.627Z,1.40
2023-03-18T11:56:17.092Z,1.43
2023-03-18T11:59:14.465Z,1.70
2023-03-18T12:01:53.186Z,1.63
2023-03-18T12:04:36.083Z,1.30
2023-03-18T12:07:18.140Z,1.73
2023-03-18T12:09:53.663Z,1.60
2023-03-18T12:12:42.980Z,1.07
2023-03-18T12:15:22.708Z,1.20
2023-03-18T12:18:01.288Z,1.40
2023-03-18T12:20:47.879Z,1.33
2023-03-18T12:23:32.669Z,1.30
2023-03-18T12:26:05.366Z,1.50
2023-03-18T12:28:49.021Z,1.40
2023-03-18T12:31:36.708Z,1.30
2023-03-18T12:34:05.135Z,1.17
2023-03-18T12:36:46.258Z,1.20
2023-03-18T12:39:50.222Z,1.50
2023-03-18T12:42:19.848Z,1.40
2023-03-18T12:44:58.835Z,1.40
2023-03-18T12:47:36.528Z,1.20
2023-03-18T12:50:08.889Z,1.20
2023-03-18T12:52:43.547Z,1.20
2023-03-18T12:55:17.094Z,1.40
2023-03-18T12:57:49.251Z,1.23
2023-03-18T13:00:25.103Z,1.40
2023-03-18T13:03:23.374Z,1.10
2023-03-18T13:05:54.415Z,1.30
2023-03-18T13:08:47.973Z,1.30
2023-03-18T13:11:30.905Z,1.40
2023-03-18T13:14:04.568Z,1.10
2023-03-18T13:16:35.302Z,1.20
2023-03-18T13:19:04.845Z,1.50
2023-03-18T13:21:37.818Z,1.23
2023-03-18T13:24:40.831Z,1.30
2023-03-18T13:27:27.005Z,1.30
2023-03-18T13:30:02.820Z,1.00
2023-03-18T13:32:48.645Z,0.90
2023-03-18T13:35:37.716Z,1.33
2023-03-18T13:38:28.139Z,1.23
2023-03-18T13:41:12.459Z,1.20
2023-03-18T13:43:42.267Z,1.30
2023-03-18T13:46:20.492Z,1.27
2023-03-18T13:48:48.513Z,1.60
2023-03-18T13:51:21.825Z,1.00
2023-03-18T13:53:51.360Z,1.20
2023-03-18T13:56:33.751Z,1.03
2023-03-18T13:59:05.807Z,0.93
2023-03-18T14:01:36.839Z,1.30
2023-03-18T14:04:32.139Z,0.90
2023-03-18T14:07:17.026Z,1.10
2023-03-18T14:09:51.261Z,1.03
2023-03-18T14:12:23.994Z,1.10
2023-03-18T14:15:05.875Z,1.20
2023-03-18T14:17:46.261Z,1.10
2023-03-18T14:20:27.151Z,1.40
2023-03-18T14:22:57.734Z,1.07
2023-03-18T14:25:41.854Z,1.07
2023-03-18T14:28:27.599Z,1.07
2023-03-18T14:31:13.789Z,1.20
2023-03-18T14:34:06.870Z,1.20
2023-03-18T14:37:04.423Z,0.90
2023-03-18T14:39:39.094Z,1.13
2023-03-18T14:42:24.063Z,0.90
2023-03-18T14:44:55.088Z,1.20
2023-03-18T14:47:38.942Z,1.33
2023-03-18T14:50:15.066Z,0.90
2023-03-18T14:52:46.052Z,1.20
2023-03-18T14:55:20.629Z,1.00
2023-03-18T14:57:48.252Z,0.90
2023-03-18T15:00:17.785Z,1.00
2023-03-18T15:02:46.525Z,1.27
2023-03-18T15:05:18.788Z,1.07
2023-03-18T15:07:52.726Z,1.07
2023-03-18T15:10:25.741Z,0.90
2023-03-18T15:13:04.393Z,1.27
2023-03-18T15:15:32.939Z,1.43
2023-03-18T15:18:12.353Z,1.10
2023-03-18T15:20:40.154Z,1.23
2023-03-18T15:23:10.152Z,1.20
2023-03-18T15:25:42.507Z,1.30
2023-03-18T15:28:20.281Z,1.20
2023-03-18T15:30:56.029Z,0.90
2023-03-18T15:33:26.075Z,1.20
2023-03-18T15:36:01.584Z,1.20
2023-03-18T15:38:31.344Z,0.83
2023-03-18T15:41:02.371Z,1.20
2023-03-18T15:43:32.643Z,1.00
2023-03-18T15:46:01.755Z,1.10
2023-03-18T15:48:34.960Z,0.93
2023-03-18T15:51:05.859Z,1.10
2023-03-18T15:53:42.927Z,1.03
2023-03-18T15:56:18.278Z,1.30
2023-03-18T15:58:47.131Z,1.00
2023-03-18T16:01:18.633Z,1.43
2023-03-18T16:03:47.444Z,1.20
2023-03-18T16:06:16.730Z,1.10
2023-03-18T16:08:45.774Z,1.27
2023-03-18T16:11:14.923Z,1.07
2023-03-18T16:13:44.687Z,1.13
2023-03-18T16:16:18.526Z,0.90
2023-03-18T16:18:46.695Z,1.20
2023-03-18T16:21:15.191Z,1.03
2023-03-18T16:23:43.927Z,1.20
2023-03-18T16:26:16.581Z,1.10
2023-03-18T16:28:48.285Z,1.03
2023-03-18T16:31:16.282Z,1.10
2023-03-18T16:33:46.251Z,1.10
2023-03-18T16:36:26.626Z,1.77
2023-03-18T16:38:54.240Z,0.93
2023-03-18T16:41:21.849Z,1.10
2023-03-18T16:43:50.970Z,1.13
2023-03-18T16:46:19.185Z,1.10
2023-03-18T16:48:49.619Z,1.20
2023-03-18T16:51:17.506Z,1.00
2023-03-18T16:53:45.171Z,1.30
2023-03-18T16:56:17.178Z,0.80
2023-03-18T16:58:45.546Z,1.00
2023-03-18T17:01:16.467Z,1.50
2023-03-18T17:03:45.654Z,1.20
2023-03-18T17:06:14.839Z,1.10
2023-03-18T17:08:42.506Z,1.00
2023-03-18T17:11:19.113Z,1.00
2023-03-18T17:13:46.995Z,1.20
2023-03-18T17:16:20.475Z,1.00
2023-03-18T17:18:48.213Z,1.10
2023-03-18T17:21:17.002Z,1.00
2023-03-18T17:23:45.603Z,1.20
2023-03-18T17:26:15.940Z,1.40
2023-03-18T17:28:45.711Z,1.30
2023-03-18T17:31:14.423Z,1.10
2023-03-18T17:33:43.838Z,1.13
2023-03-18T17:36:11.445Z,1.10
2023-03-18T17:38:39.053Z,1.10
2023-03-18T17:41:13.909Z,1.10
2023-03-18T17:43:42.048Z,1.30
2023-03-18T17:46:09.994Z,1.10
2023-03-18T17:48:39.359Z,1.07
2023-03-18T17:51:14.042Z,1.27
2023-03-18T17:53:43.472Z,1.10
2023-03-18T17:56:14.934Z,1.30
2023-03-18T17:58:45.522Z,1.20
2023-03-18T18:01:15.346Z,1.10
2023-03-18T18:03:43.273Z,1.20
2023-03-18T18:06:18.025Z,1.13
2023-03-18T18:08:45.681Z,0.90
2023-03-18T18:11:20.110Z,1.40
2023-03-18T18:13:48.524Z,1.07
2023-03-18T18:16:16.175Z,1.20
2023-03-18T18:18:43.748Z,1.10
2023-03-18T18:21:15.940Z,1.20
2023-03-18T18:23:45.380Z,1.10
2023-03-18T18:26:16.284Z,1.03
2023-03-18T18:28:46.081Z,1.67
2023-03-18T18:31:14.618Z,0.90
2023-03-18T18:33:44.900Z,1.30
2023-03-18T18:36:15.027Z,1.20
2023-03-18T18:38:43.143Z,1.17
2023-03-18T18:41:11.193Z,0.97
2023-03-18T18:43:38.878Z,1.10
2023-03-18T18:46:14.588Z,1.40
2023-03-18T18:48:43.160Z,1.00
2023-03-18T18:51:18.275Z,1.47
2023-03-18T18:53:47.479Z,1.00
2023-03-18T18:56:18.521Z,1.20
2023-03-18T18:58:46.990Z,1.40
2023-03-18T19:01:15.178Z,1.40
2023-03-18T19:03:43.551Z,1.17
2023-03-18T19:06:25.733Z,1.40
2023-03-18T19:08:54.171Z,1.40
2023-03-18T19:11:21.833Z,1.13
2023-03-18T19:13:49.467Z,1.20
2023-03-18T19:16:28.635Z,1.30
2023-03-18T19:18:56.343Z,1.40
2023-03-18T19:21:25.313Z,1.50
2023-03-18T19:23:52.949Z,1.23
2023-03-18T19:26:21.394Z,1.30
2023-03-18T19:28:58.894Z,1.30
2023-03-18T19:31:30.508Z,1.40
2023-03-18T19:33:59.796Z,1.40
2023-03-18T19:36:31.500Z,1.50
2023-03-18T19:39:00.466Z,1.20
2023-03-18T19:41:29.063Z,1.30
2023-03-18T19:44:01.751Z,1.37
2023-03-18T19:46:36.900Z,1.33
2023-03-18T19:49:10.338Z,1.10
2023-03-18T19:51:39.305Z,1.40
2023-03-18T19:54:24.962Z,1.27
2023-03-18T19:56:53.599Z,1.20
2023-03-18T19:59:23.313Z,1.30
2023-03-18T20:01:52.294Z,2.03
2023-03-18T20:04:21.584Z,1.53
2023-03-18T20:06:51.124Z,1.63
2023-03-18T20:09:19.100Z,1.63
2023-03-18T20:11:47.958Z,1.50
2023-03-18T20:14:22.918Z,1.30
2023-03-18T20:16:50.709Z,1.40
2023-03-18T20:19:18.340Z,1.40
2023-03-18T20:21:46.411Z,1.30
2023-03-18T20:24:17.775Z,1.40
2023-03-18T20:26:45.500Z,1.30
2023-03-18T20:29:17.928Z,1.60
2023-03-18T20:31:46.095Z,1.30
2023-03-18T20:34:14.245Z,1.70
2023-03-18T20:36:42.962Z,1.50
2023-03-18T20:39:19.740Z,1.67
2023-03-18T20:41:47.581Z,1.50
2023-03-18T20:44:15.294Z,1.40
2023-03-18T20:46:43.085Z,1.47
2023-03-18T20:49:10.731Z,1.40
2023-03-18T20:51:41.034Z,1.60
2023-03-18T20:54:19.627Z,1.77
2023-03-18T20:56:47.845Z,1.27
2023-03-18T20:59:15.669Z,1.37
2023-03-18T21:01:43.853Z,1.40
2023-03-18T21:04:13.380Z,1.60
2023-03-18T21:06:42.059Z,1.37
2023-03-18T21:09:12.223Z,1.80
2023-03-18T21:11:41.429Z,1.60
2023-03-18T21:14:15.602Z,1.50
2023-03-18T21:16:43.351Z,1.53
2023-03-18T21:19:11.144Z,1.60
2023-03-18T21:21:39.899Z,1.47
2023-03-18T21:24:24.735Z,1.50
2023-03-18T21:27:04.084Z,1.40
2023-03-18T21:29:32.558Z,1.47
2023-03-18T21:32:02.393Z,1.50
2023-03-18T21:34:29.995Z,1.40
2023-03-18T21:36:57.891Z,1.60
2023-03-18T21:39:25.790Z,1.80
2023-03-18T21:41:55.038Z,1.90
2023-03-18T21:44:22.829Z,1.70
2023-03-18T21:46:50.448Z,1.60
2023-03-18T21:49:18.039Z,1.60
2023-03-18T21:51:45.696Z,1.30
2023-03-18T21:54:18.870Z,1.40
2023-03-18T21:56:46.475Z,1.73
2023-03-18T21:59:15.457Z,1.60
2023-03-18T22:01:43.101Z,1.50
2023-03-18T22:04:10.723Z,1.60
2023-03-18T22:06:38.400Z,1.60
2023-03-18T22:09:06.070Z,1.87
2023-03-18T22:11:33.731Z,1.70
2023-03-18T22:14:01.347Z,1.70
2023-03-18T22:16:30.431Z,1.87
2023-03-18T22:18:58.038Z,1.90
2023-03-18T22:21:27.667Z,1.80
2023-03-18T22:23:58.078Z,1.70
2023-03-18T22:26:25.749Z,1.60
2023-03-18T22:28:53.404Z,1.63
2023-03-18T22:31:23.617Z,1.53
2023-03-18T22:33:52.656Z,1.87
2023-03-18T22:36:21.737Z,1.90
2023-03-18T22:38:49.936Z,1.90
2023-03-18T22:41:21.169Z,1.50
2023-03-18T22:43:48.801Z,1.50
2023-03-18T22:46:16.780Z,1.60
2023-03-18T22:48:44.392Z,1.70
2023-03-18T22:51:22.998Z,1.70
2023-03-18T22:53:52.374Z,1.63
2023-03-18T22:56:20.985Z,1.67
2023-03-18T22:58:48.634Z,1.53
2023-03-18T23:01:18.514Z,1.63
2023-03-18T23:03:47.687Z,2.17
2023-03-18T23:06:18.565Z,1.93
2023-03-18T23:08:46.530Z,1.83
2023-03-18T23:11:15.713Z,1.37
2023-03-18T23:13:45.429Z,1.60
2023-03-18T23:16:16.331Z,1.50
2023-03-18T23:18:44.086Z,1.40
2023-03-18T23:21:16.780Z,1.87
2023-03-18T23:23:44.549Z,1.80
2023-03-18T23:26:12.362Z,1.60
2023-03-18T23:28:44.794Z,1.50
2023-03-18T23:31:13.044Z,1.67
2023-03-18T23:33:40.848Z,1.57
2023-03-18T23:36:09.273Z,1.73
2023-03-18T23:38:38.708Z,1.70
2023-03-18T23:41:07.074Z,1.33
2023-03-18T23:43:34.982Z,1.70
2023-03-18T23:46:03.751Z,1.80
2023-03-18T23:48:31.891Z,1.70
2023-03-18T23:50:59.504Z,1.50
2023-03-18T23:53:27.219Z,1.43
2023-03-18T23:55:56.694Z,1.70
2023-03-18T23:58:24.309Z,1.67
